createdAt,value
2018-06-20T00:01:17.786Z,3.10
2018-06-20T00:03:48.441Z,2.97
2018-06-20T00:06:19.244Z,2.80
2018-06-20T00:08:52.107Z,3.37
2018-06-20T00:11:24.618Z,2.53
2018-06-20T00:13:55.841Z,3.00
2018-06-20T00:16:26.899Z,3.33
2018-06-20T00:18:57.605Z,2.70
2018-06-20T00:21:28.254Z,2.73
2018-06-20T00:23:58.989Z,3.03
2018-06-20T00:26:29.557Z,3.50
2018-06-20T00:29:00.109Z,4.07
2018-06-20T00:31:30.763Z,3.20
2018-06-20T00:34:01.685Z,3.40
2018-06-20T00:36:32.988Z,2.90
2018-06-20T00:39:04.811Z,2.77
2018-06-20T00:41:35.274Z,2.93
2018-06-20T00:44:06.393Z,3.03
2018-06-20T00:46:37.664Z,2.63
2018-06-20T00:49:08.260Z,4.10
2018-06-20T00:51:38.769Z,2.60
2018-06-20T00:54:09.310Z,3.27
2018-06-20T00:56:39.792Z,3.70
2018-06-20T00:59:10.484Z,3.20
2018-06-20T01:01:41.104Z,2.57
2018-06-20T01:04:12.087Z,2.90
2018-06-20T01:06:42.811Z,3.43
2018-06-20T01:09:13.415Z,2.97
2018-06-20T01:11:43.912Z,2.67
2018-06-20T01:14:14.379Z,3.23
2018-06-20T01:16:44.884Z,3.30
2018-06-20T01:19:15.388Z,3.07
2018-06-20T01:21:46.037Z,2.70
2018-06-20T01:24:16.402Z,3.20
2018-06-20T01:26:46.888Z,3.27
2018-06-20T01:29:17.431Z,3.40
2018-06-20T01:31:48.011Z,2.60
2018-06-20T01:34:18.602Z,2.60
2018-06-20T01:36:49.525Z,3.00
2018-06-20T01:39:20.176Z,2.90
2018-06-20T01:41:50.762Z,2.93
2018-06-20T01:44:21.421Z,2.60
2018-06-20T01:46:52.173Z,2.77
2018-06-20T01:49:22.836Z,3.47
2018-06-20T01:51:53.512Z,3.40
2018-06-20T01:54:24.275Z,3.20
2018-06-20T01:56:54.485Z,3.40
2018-06-20T01:59:25.028Z,3.60
2018-06-20T02:01:55.537Z,3.37
2018-06-20T02:04:25.761Z,3.70
2018-06-20T02:06:56.296Z,3.60
2018-06-20T02:09:27.865Z,3.90
2018-06-20T02:11:58.463Z,3.80
2018-06-20T02:14:28.840Z,3.50
2018-06-20T02:16:59.342Z,4.70
2018-06-20T02:19:30.060Z,3.17
2018-06-20T02:22:00.797Z,4.07
2018-06-20T02:24:31.624Z,3.67
2018-06-20T02:27:01.900Z,4.20
2018-06-20T02:29:32.630Z,4.70
2018-06-20T02:32:03.379Z,3.90
2018-06-20T02:34:34.343Z,3.40
2018-06-20T02:37:04.938Z,4.60
2018-06-20T02:39:35.515Z,3.70
2018-06-20T02:42:05.917Z,3.30
2018-06-20T02:44:36.981Z,4.43
2018-06-20T02:47:07.858Z,3.87
2018-06-20T02:49:39.081Z,3.40
2018-06-20T02:52:10.488Z,4.13
2018-06-20T02:54:41.174Z,4.00
2018-06-20T02:57:11.864Z,3.73
2018-06-20T02:59:42.458Z,4.67
2018-06-20T03:02:13.272Z,3.90
2018-06-20T03:04:43.500Z,3.67
2018-06-20T03:07:13.900Z,4.30
2018-06-20T03:09:44.463Z,3.43
2018-06-20T03:12:15.097Z,3.67
2018-06-20T03:14:45.648Z,3.43
2018-06-20T03:17:16.319Z,3.93
2018-06-20T03:19:46.878Z,3.90
2018-06-20T03:22:17.329Z,4.40
2018-06-20T03:24:47.938Z,4.20
2018-06-20T03:27:18.709Z,3.67
2018-06-20T03:29:50.003Z,3.60
2018-06-20T03:32:20.638Z,4.40
2018-06-20T03:34:51.232Z,3.97
2018-06-20T03:37:22.009Z,3.53
2018-06-20T03:39:52.428Z,3.80
2018-06-20T03:42:22.976Z,3.60
2018-06-20T03:44:53.594Z,4.20
2018-06-20T03:47:24.121Z,4.30
2018-06-20T03:49:54.775Z,3.63
2018-06-20T03:52:25.412Z,4.30
2018-06-20T03:54:56.036Z,3.80
2018-06-20T03:57:26.841Z,4.53
2018-06-20T03:59:57.358Z,3.77
2018-06-20T04:02:28.010Z,3.77
2018-06-20T04:04:59.628Z,3.70
2018-06-20T04:07:30.314Z,4.00
2018-06-20T04:10:01.246Z,3.47
2018-06-20T04:12:31.712Z,3.50
2018-06-20T04:15:02.525Z,3.60
2018-06-20T04:17:33.294Z,4.13
2018-06-20T04:20:04.264Z,3.17
2018-06-20T04:22:34.757Z,4.37
2018-06-20T04:25:05.245Z,3.23
2018-06-20T04:27:35.936Z,4.33
2018-06-20T04:30:06.787Z,3.30
2018-06-20T04:32:37.432Z,4.83
2018-06-20T04:35:08.281Z,4.10
2018-06-20T04:37:38.976Z,3.43
2018-06-20T04:40:09.495Z,3.90
2018-06-20T04:42:41.255Z,3.50
2018-06-20T04:45:11.783Z,3.90
2018-06-20T04:47:42.421Z,3.90
2018-06-20T04:50:13.102Z,4.00
2018-06-20T04:52:43.764Z,3.73
2018-06-20T04:55:14.423Z,3.60
2018-06-20T04:57:45.061Z,3.17
2018-06-20T05:00:15.808Z,3.50
2018-06-20T05:02:46.662Z,4.13
2018-06-20T05:05:17.328Z,3.50
2018-06-20T05:07:47.852Z,3.70
2018-06-20T05:10:18.454Z,3.27
2018-06-20T05:12:49.020Z,3.67
2018-06-20T05:15:19.602Z,3.97
2018-06-20T05:17:50.181Z,3.03
2018-06-20T05:20:20.913Z,4.00
2018-06-20T05:22:51.510Z,3.60
2018-06-20T05:25:21.745Z,3.97
2018-06-20T05:27:52.769Z,3.80
2018-06-20T05:30:23.504Z,3.20
2018-06-20T05:32:54.167Z,2.80
2018-06-20T05:35:24.781Z,3.20
2018-06-20T05:37:56.137Z,3.50
2018-06-20T05:40:26.727Z,3.13
2018-06-20T05:42:57.418Z,3.67
2018-06-20T05:45:28.007Z,2.93
2018-06-20T05:47:58.332Z,3.53
2018-06-20T05:50:29.185Z,2.90
2018-06-20T05:52:59.698Z,2.60
2018-06-20T05:55:30.327Z,3.00
2018-06-20T05:58:01.064Z,3.00
2018-06-20T06:00:31.218Z,2.93
2018-06-20T06:03:01.843Z,3.57
2018-06-20T06:05:32.453Z,3.33
2018-06-20T06:08:07.789Z,3.30
2018-06-20T06:10:38.422Z,4.33
2018-06-20T06:13:09.013Z,4.43
2018-06-20T06:15:39.541Z,4.40
2018-06-20T06:18:10.715Z,4.37
2018-06-20T06:20:41.627Z,4.37
2018-06-20T06:23:12.221Z,4.13
2018-06-20T06:25:42.814Z,4.00
2018-06-20T06:28:13.492Z,4.47
2018-06-20T06:30:44.227Z,4.53
2018-06-20T06:33:14.749Z,4.20
2018-06-20T06:35:45.657Z,4.37
2018-06-20T06:38:16.267Z,4.67
2018-06-20T06:40:46.778Z,4.67
2018-06-20T06:43:17.378Z,4.93
2018-06-20T06:45:48.116Z,4.30
2018-06-20T06:48:18.787Z,4.20
2018-06-20T06:50:49.357Z,4.77
2018-06-20T06:53:20.477Z,4.33
2018-06-20T06:55:51.143Z,5.03
2018-06-20T06:58:21.595Z,5.23
2018-06-20T07:00:52.294Z,4.50
2018-06-20T07:03:22.791Z,4.80
2018-06-20T07:05:53.583Z,3.60
2018-06-20T07:08:24.154Z,4.50
2018-06-20T07:10:54.948Z,4.20
2018-06-20T07:13:25.691Z,3.90
2018-06-20T07:15:56.247Z,3.80
2018-06-20T07:18:27.113Z,3.70
2018-06-20T07:20:57.749Z,4.40
2018-06-20T07:23:28.118Z,4.17
2018-06-20T07:25:58.688Z,4.13
2018-06-20T07:28:29.448Z,3.93
2018-06-20T07:30:59.957Z,3.50
2018-06-20T07:33:30.657Z,3.77
2018-06-20T07:36:01.417Z,3.90
2018-06-20T07:38:31.904Z,3.60
2018-06-20T07:41:02.417Z,3.90
2018-06-20T07:43:33.117Z,3.73
2018-06-20T07:46:03.742Z,3.40
2018-06-20T07:48:34.321Z,4.60
2018-06-20T07:51:04.980Z,3.40
2018-06-20T07:53:35.520Z,3.10
2018-06-20T07:56:06.374Z,3.43
2018-06-20T07:58:42.068Z,4.03
2018-06-20T08:01:28.489Z,3.13
2018-06-20T08:04:04.274Z,3.60
2018-06-20T08:06:40.087Z,3.60
2018-06-20T08:09:15.760Z,4.00
2018-06-20T08:11:51.884Z,3.23
2018-06-20T08:14:27.752Z,2.97
2018-06-20T08:17:06.075Z,3.50
2018-06-20T08:19:41.931Z,3.70
2018-06-20T08:22:12.761Z,2.40
2018-06-20T08:25:01.409Z,2.90
2018-06-20T08:27:33.244Z,2.90
2018-06-20T08:30:06.312Z,3.50
2018-06-20T08:32:36.443Z,3.00
2018-06-20T08:35:06.998Z,2.93
2018-06-20T08:37:37.633Z,2.57
2018-06-20T08:40:08.120Z,2.70
2018-06-20T08:42:38.868Z,2.50
2018-06-20T08:45:10.312Z,2.23
2018-06-20T08:47:40.799Z,2.27
2018-06-20T08:50:11.381Z,2.47
2018-06-20T08:52:42.156Z,2.40
2018-06-20T08:55:12.943Z,1.90
2018-06-20T08:57:43.523Z,2.20
2018-06-20T09:00:14.546Z,2.33
2018-06-20T09:02:45.370Z,2.40
2018-06-20T09:05:21.204Z,2.40
2018-06-20T09:07:57.341Z,2.70
2018-06-20T09:10:33.139Z,2.47
2018-06-20T09:13:08.931Z,1.90
2018-06-20T09:15:44.658Z,2.27
2018-06-20T09:18:20.462Z,2.40
2018-06-20T09:20:51.043Z,2.80
2018-06-20T09:23:21.522Z,2.60
2018-06-20T09:25:52.633Z,2.10
2018-06-20T09:28:23.127Z,2.83
2018-06-20T09:30:53.830Z,2.00
2018-06-20T09:33:24.548Z,2.70
2018-06-20T09:35:55.070Z,2.00
2018-06-20T09:38:25.404Z,2.23
2018-06-20T09:40:56.278Z,1.80
2018-06-20T09:43:27.806Z,2.30
2018-06-20T09:45:58.357Z,1.87
2018-06-20T09:48:28.960Z,2.00
2018-06-20T09:51:00.379Z,2.10
2018-06-20T09:53:31.063Z,2.13
2018-06-20T09:56:02.478Z,1.60
2018-06-20T09:58:33.201Z,1.83
2018-06-20T10:01:09.233Z,1.90
2018-06-20T10:03:44.848Z,2.27
2018-06-20T10:06:21.358Z,1.63
2018-06-20T10:08:57.042Z,2.23
2018-06-20T10:11:32.798Z,1.90
2018-06-20T10:14:07.825Z,2.00
2018-06-20T10:16:38.397Z,1.63
2018-06-20T10:19:09.074Z,2.00
2018-06-20T10:21:39.810Z,2.07
2018-06-20T10:24:10.691Z,2.17
2018-06-20T10:26:41.423Z,1.90
2018-06-20T10:29:11.978Z,1.70
2018-06-20T10:31:42.583Z,1.57
2018-06-20T10:34:15.985Z,1.90
2018-06-20T10:36:47.025Z,1.90
2018-06-20T10:39:17.760Z,2.57
2018-06-20T10:41:48.485Z,1.80
2018-06-20T10:44:19.013Z,1.80
2018-06-20T10:46:54.583Z,1.60
2018-06-20T10:49:25.385Z,1.50
2018-06-20T10:51:56.099Z,1.73
2018-06-20T10:54:26.899Z,1.50
2018-06-20T10:57:02.691Z,1.67
2018-06-20T10:59:38.383Z,1.87
2018-06-20T11:02:14.141Z,1.43
2018-06-20T11:04:49.948Z,1.53
2018-06-20T11:08:29.189Z,1.40
2018-06-20T11:11:04.744Z,1.53
2018-06-20T11:13:38.374Z,1.73
2018-06-20T11:16:09.162Z,1.70
2018-06-20T11:18:43.370Z,1.90
2018-06-20T11:21:13.958Z,1.90
2018-06-20T11:23:44.898Z,1.83
2018-06-20T11:26:15.386Z,1.50
2018-06-20T11:28:46.036Z,1.83
2018-06-20T11:31:16.799Z,2.27
2018-06-20T11:33:47.719Z,2.40
2018-06-20T11:36:17.989Z,1.73
2018-06-20T11:38:48.451Z,1.47
2018-06-20T11:41:19.393Z,1.70
2018-06-20T11:43:50.282Z,1.53
2018-06-20T11:46:25.989Z,2.00
2018-06-20T11:48:56.815Z,1.90
2018-06-20T11:51:27.510Z,2.03
2018-06-20T11:53:58.988Z,2.17
2018-06-20T11:56:29.661Z,1.57
2018-06-20T11:59:05.377Z,1.80
2018-06-20T12:01:41.065Z,1.80
2018-06-20T12:04:16.799Z,1.67
2018-06-20T12:06:52.590Z,2.00
2018-06-20T12:09:28.393Z,2.30
2018-06-20T12:12:04.366Z,1.50
2018-06-20T12:14:41.338Z,1.47
2018-06-20T12:17:21.468Z,2.50
2018-06-20T12:19:57.252Z,1.73
2018-06-20T12:22:33.026Z,1.70
2018-06-20T12:25:08.919Z,1.57
2018-06-20T12:27:44.693Z,2.13
2018-06-20T12:30:20.440Z,1.97
2018-06-20T12:32:56.406Z,1.80
2018-06-20T12:35:32.093Z,2.20
2018-06-20T12:38:07.902Z,2.23
2018-06-20T12:40:43.934Z,1.50
2018-06-20T12:44:21.586Z,2.50
2018-06-20T12:46:58.072Z,1.60
2018-06-20T12:49:34.589Z,2.00
2018-06-20T12:52:05.652Z,1.60
2018-06-20T12:54:36.313Z,2.20
2018-06-20T12:57:07.142Z,1.73
2018-06-20T12:59:37.874Z,1.70
2018-06-20T13:02:08.604Z,2.23
2018-06-20T13:04:39.235Z,1.80
2018-06-20T13:07:09.855Z,1.90
2018-06-20T13:09:40.498Z,2.10
2018-06-20T13:12:11.172Z,1.90
2018-06-20T13:14:41.764Z,1.67
2018-06-20T13:17:12.444Z,1.93
2018-06-20T13:19:43.614Z,1.77
2018-06-20T13:22:14.326Z,2.20
2018-06-20T13:24:45.318Z,2.20
2018-06-20T13:27:21.173Z,2.17
2018-06-20T13:29:56.807Z,2.20
2018-06-20T13:32:32.671Z,1.80
2018-06-20T13:35:08.427Z,2.70
2018-06-20T13:37:44.355Z,2.50
2018-06-20T13:40:20.167Z,2.57
2018-06-20T13:42:55.837Z,2.23
2018-06-20T13:45:31.902Z,2.20
2018-06-20T13:48:11.840Z,1.90
2018-06-20T13:50:42.420Z,2.00
2018-06-20T13:53:12.944Z,1.50
2018-06-20T13:55:43.922Z,2.63
2018-06-20T13:58:15.763Z,2.10
2018-06-20T14:00:47.029Z,2.10
2018-06-20T14:03:20.792Z,2.83
2018-06-20T14:05:51.301Z,1.20
2018-06-20T14:08:22.114Z,1.30
2018-06-20T14:10:52.701Z,1.80
2018-06-20T14:13:23.351Z,1.40
2018-06-20T14:15:53.560Z,1.70
2018-06-20T14:18:23.662Z,1.40
2018-06-20T14:20:59.170Z,2.00
2018-06-20T14:23:29.679Z,1.70
2018-06-20T14:26:01.307Z,1.60
2018-06-20T14:28:32.382Z,1.50
2018-06-20T14:31:08.065Z,1.63
2018-06-20T14:33:44.382Z,1.70
2018-06-20T14:36:20.111Z,1.90
2018-06-20T14:38:55.941Z,2.13
2018-06-20T14:41:26.710Z,1.90
2018-06-20T14:44:02.457Z,2.20
2018-06-20T14:46:33.339Z,2.20
2018-06-20T14:49:04.038Z,2.23
2018-06-20T14:51:34.719Z,1.80
2018-06-20T14:54:06.110Z,1.80
2018-06-20T14:56:36.882Z,2.50
2018-06-20T14:59:07.525Z,1.83
2018-06-20T15:01:38.210Z,2.13
2018-06-20T15:04:08.789Z,1.90
2018-06-20T15:06:39.471Z,2.23
2018-06-20T15:09:10.101Z,2.20
2018-06-20T15:11:40.835Z,2.23
2018-06-20T15:14:11.554Z,2.13
2018-06-20T15:16:47.421Z,2.00
2018-06-20T15:19:18.025Z,2.07
2018-06-20T15:21:48.742Z,2.00
2018-06-20T15:24:19.410Z,2.07
2018-06-20T15:26:55.335Z,1.77
2018-06-20T15:29:30.975Z,1.90
2018-06-20T15:32:07.485Z,2.13
2018-06-20T15:34:43.312Z,2.00
2018-06-20T15:37:19.345Z,2.10
2018-06-20T15:39:49.869Z,1.83
2018-06-20T15:42:20.611Z,1.60
2018-06-20T15:44:51.325Z,1.70
2018-06-20T15:47:22.020Z,4.33
2018-06-20T15:49:52.551Z,9.40
2018-06-20T15:52:23.092Z,7.10
2018-06-20T15:54:53.672Z,4.80
2018-06-20T15:57:24.489Z,1.83
2018-06-20T15:59:55.145Z,1.67
2018-06-20T16:02:26.016Z,1.80
2018-06-20T16:05:03.481Z,2.10
2018-06-20T16:07:34.247Z,1.70
2018-06-20T16:10:06.774Z,1.50
2018-06-20T16:12:37.521Z,1.93
2018-06-20T16:15:08.097Z,3.10
2018-06-20T16:17:38.725Z,3.67
2018-06-20T16:20:14.438Z,4.67
2018-06-20T16:22:50.060Z,2.43
2018-06-20T16:25:25.862Z,2.70
2018-06-20T16:28:01.779Z,1.73
2018-06-20T16:30:39.655Z,2.03
2018-06-20T16:33:10.338Z,1.87
2018-06-20T16:35:41.130Z,1.97
2018-06-20T16:38:11.754Z,2.00
2018-06-20T16:40:42.534Z,2.00
2018-06-20T16:43:13.281Z,1.90
2018-06-20T16:45:43.956Z,1.67
2018-06-20T16:48:14.729Z,1.97
2018-06-20T16:50:45.407Z,2.00
2018-06-20T16:53:15.962Z,2.23
2018-06-20T16:55:46.542Z,1.93
2018-06-20T16:58:17.122Z,2.40
2018-06-20T17:00:47.853Z,2.87
2018-06-20T17:03:18.531Z,2.73
2018-06-20T17:05:49.059Z,2.37
2018-06-20T17:08:19.777Z,2.47
2018-06-20T17:10:50.493Z,2.87
2018-06-20T17:13:26.255Z,2.50
2018-06-20T17:16:02.239Z,3.40
2018-06-20T17:20:40.653Z,2.07
2018-06-20T17:24:22.133Z,1.90
2018-06-20T17:26:52.844Z,1.90
2018-06-20T17:29:23.427Z,3.00
2018-06-20T17:31:54.429Z,2.10
2018-06-20T17:34:25.018Z,1.83
2018-06-20T17:36:55.538Z,2.20
2018-06-20T17:39:26.073Z,3.10
2018-06-20T17:41:56.591Z,1.80
2018-06-20T17:44:27.343Z,1.90
2018-06-20T17:46:57.953Z,2.10
2018-06-20T17:49:28.724Z,2.17
2018-06-20T17:51:59.560Z,2.30
2018-06-20T17:54:30.447Z,1.80
2018-06-20T17:57:01.029Z,1.83
2018-06-20T17:59:31.823Z,1.87
2018-06-20T18:02:02.469Z,2.00
2018-06-20T18:04:38.230Z,2.10
2018-06-20T18:07:14.045Z,2.50
2018-06-20T18:09:49.926Z,2.33
2018-06-20T18:12:26.081Z,2.90
2018-06-20T18:15:01.944Z,1.90
2018-06-20T18:17:32.378Z,2.20
2018-06-20T18:20:02.991Z,2.23
2018-06-20T18:22:33.597Z,2.90
2018-06-20T18:25:04.753Z,2.60
2018-06-20T18:27:35.359Z,3.20
2018-06-20T18:30:06.314Z,2.70
2018-06-20T18:32:37.117Z,2.27
2018-06-20T18:35:08.107Z,2.80
2018-06-20T18:37:38.901Z,2.53
2018-06-20T18:40:10.678Z,2.53
2018-06-20T18:42:41.367Z,2.53
2018-06-20T18:45:16.379Z,2.80
2018-06-20T18:47:52.440Z,2.90
2018-06-20T18:50:22.988Z,2.90
2018-06-20T18:52:53.284Z,2.17
2018-06-20T18:55:24.078Z,3.13
2018-06-20T18:58:00.105Z,2.40
2018-06-20T19:00:35.950Z,2.53
2018-06-20T19:03:11.918Z,3.30
2018-06-20T19:05:47.605Z,2.60
2018-06-20T19:08:23.541Z,2.80
2018-06-20T19:10:54.120Z,3.23
2018-06-20T19:13:24.900Z,2.67
2018-06-20T19:15:55.644Z,2.60
2018-06-20T19:18:26.642Z,3.00
2018-06-20T19:20:57.531Z,2.73
2018-06-20T19:23:28.309Z,3.33
2018-06-20T19:25:59.118Z,2.70
2018-06-20T19:28:29.647Z,2.37
2018-06-20T19:31:00.212Z,2.27
2018-06-20T19:33:30.840Z,3.80
2018-06-20T19:36:01.499Z,3.10
2018-06-20T19:38:32.251Z,2.90
2018-06-20T19:41:02.674Z,2.83
2018-06-20T19:43:33.822Z,2.80
2018-06-20T19:46:04.705Z,3.30
2018-06-20T19:48:35.409Z,3.50
2018-06-20T19:51:06.261Z,3.20
2018-06-20T19:53:36.995Z,3.23
2018-06-20T19:56:07.877Z,2.70
2018-06-20T19:58:37.679Z,2.60
2018-06-20T20:01:08.113Z,3.73
2018-06-20T20:03:38.648Z,2.97
2018-06-20T20:06:09.322Z,3.53
2018-06-20T20:08:39.983Z,3.43
2018-06-20T20:11:10.541Z,2.70
2018-06-20T20:13:41.192Z,4.93
2018-06-20T20:16:11.936Z,3.33
2018-06-20T20:18:42.603Z,3.23
2018-06-20T20:21:13.373Z,3.17
2018-06-20T20:23:43.753Z,3.70
2018-06-20T20:26:14.369Z,3.10
2018-06-20T20:28:45.086Z,3.07
2018-06-20T20:31:15.885Z,2.90
2018-06-20T20:33:46.777Z,2.40
2018-06-20T20:36:17.339Z,3.00
2018-06-20T20:38:48.539Z,3.13
2018-06-20T20:41:19.977Z,3.40
2018-06-20T20:43:50.598Z,3.30
2018-06-20T20:46:21.345Z,3.27
2018-06-20T20:48:52.714Z,2.53
2018-06-20T20:51:23.817Z,2.83
2018-06-20T20:53:54.592Z,2.90
2018-06-20T20:56:25.226Z,2.60
2018-06-20T20:58:55.489Z,3.30
2018-06-20T21:01:26.161Z,3.10
2018-06-20T21:03:56.712Z,3.40
2018-06-20T21:06:27.484Z,2.97
2018-06-20T21:08:58.210Z,3.57
2018-06-20T21:11:31.539Z,3.60
2018-06-20T21:14:02.878Z,2.47
2018-06-20T21:16:33.784Z,2.50
2018-06-20T21:19:04.450Z,3.10
2018-06-20T21:21:35.362Z,2.80
2018-06-20T21:24:06.176Z,3.43
2018-06-20T21:26:36.910Z,3.30
2018-06-20T21:29:07.563Z,3.33
2018-06-20T21:31:38.259Z,2.60
2018-06-20T21:34:09.040Z,3.10
2018-06-20T21:36:39.745Z,3.10
2018-06-20T21:39:11.673Z,3.03
2018-06-20T21:41:42.631Z,3.00
2018-06-20T21:44:13.449Z,2.50
2018-06-20T21:46:44.239Z,3.07
2018-06-20T21:49:14.805Z,2.53
2018-06-20T21:51:45.906Z,2.60
2018-06-20T21:54:16.356Z,3.07
2018-06-20T21:56:47.478Z,2.70
2018-06-20T21:59:18.188Z,2.90
2018-06-20T22:01:48.892Z,2.87
2018-06-20T22:04:19.681Z,2.57
2018-06-20T22:06:55.432Z,2.90
2018-06-20T22:09:26.953Z,2.90
2018-06-20T22:11:58.466Z,2.93
2018-06-20T22:14:28.943Z,2.30
2018-06-20T22:16:59.696Z,2.37
2018-06-20T22:19:30.380Z,2.57
2018-06-20T22:22:01.165Z,2.83
2018-06-20T22:24:31.968Z,3.33
2018-06-20T22:27:02.579Z,2.50
2018-06-20T22:29:33.333Z,3.10
2018-06-20T22:32:04.256Z,3.30
2018-06-20T22:34:34.777Z,3.50
2018-06-20T22:37:06.042Z,2.60
2018-06-20T22:39:36.634Z,2.50
2018-06-20T22:42:07.157Z,2.33
2018-06-20T22:44:37.705Z,2.50
2018-06-20T22:47:08.323Z,2.37
2018-06-20T22:49:38.984Z,2.37
2018-06-20T22:52:09.692Z,3.63
2018-06-20T22:54:40.287Z,2.70
2018-06-20T22:57:10.951Z,2.67
2018-06-20T22:59:41.616Z,2.43
2018-06-20T23:02:12.373Z,2.30
2018-06-20T23:04:42.942Z,2.27
2018-06-20T23:07:13.743Z,4.20
2018-06-20T23:09:44.503Z,3.20
2018-06-20T23:12:15.092Z,2.30
2018-06-20T23:14:45.770Z,2.63
2018-06-20T23:17:16.422Z,2.20
2018-06-20T23:19:47.034Z,2.33
2018-06-20T23:22:17.747Z,2.60
2018-06-20T23:24:48.265Z,2.60
2018-06-20T23:27:18.774Z,2.33
2018-06-20T23:29:49.423Z,2.67
2018-06-20T23:32:20.097Z,3.33
2018-06-20T23:34:51.227Z,2.80
2018-06-20T23:37:21.766Z,2.00
2018-06-20T23:39:52.322Z,2.63
2018-06-20T23:42:23.071Z,3.30
2018-06-20T23:44:53.657Z,2.70
2018-06-20T23:47:24.210Z,2.13
2018-06-20T23:49:54.384Z,2.87
2018-06-20T23:52:24.876Z,3.17
2018-06-20T23:54:55.593Z,2.10
2018-06-20T23:57:26.078Z,2.33
2018-06-20T23:59:56.724Z,4.07
